createdAt,value
2023-01-06T00:00:03.586Z,100989.31
2023-01-06T00:02:31.167Z,100993.09
2023-01-06T00:04:58.934Z,100984.00
2023-01-06T00:07:26.493Z,100980.00
2023-01-06T00:09:53.998Z,100972.25
2023-01-06T00:12:21.495Z,100982.47
2023-01-06T00:14:48.988Z,100982.97
2023-01-06T00:17:18.043Z,100967.72
2023-01-06T00:19:45.506Z,100971.38
2023-01-06T00:22:13.052Z,100970.72
2023-01-06T00:24:40.575Z,100965.09
2023-01-06T00:27:08.094Z,100968.25
2023-01-06T00:29:35.606Z,100959.38
2023-01-06T00:32:03.197Z,100954.50
2023-01-06T00:34:32.008Z,100964.63
2023-01-06T00:36:59.475Z,100957.78
2023-01-06T00:39:26.999Z,100949.81
2023-01-06T00:42:06.838Z,100960.41
2023-01-06T00:44:35.254Z,100959.78
2023-01-06T00:47:02.919Z,100957.41
2023-01-06T00:49:31.826Z,100956.78
2023-01-06T00:51:59.277Z,100967.88
2023-01-06T00:54:26.853Z,100958.16
2023-01-06T00:56:54.769Z,100963.25
2023-01-06T00:59:22.712Z,100962.03
2023-01-06T01:01:52.049Z,100954.91
2023-01-06T01:04:19.887Z,100946.25
2023-01-06T01:06:48.931Z,100958.91
2023-01-06T01:09:17.032Z,100956.94
2023-01-06T01:12:02.481Z,100954.25
2023-01-06T01:14:30.030Z,100954.50
2023-01-06T01:16:57.642Z,100947.13
2023-01-06T01:19:25.278Z,100962.50
2023-01-06T01:21:54.170Z,100954.38
2023-01-06T01:24:21.812Z,100947.03
2023-01-06T01:26:49.296Z,100960.81
2023-01-06T01:29:17.248Z,100950.16
2023-01-06T01:31:44.882Z,100953.34
2023-01-06T01:34:13.050Z,100959.50
2023-01-06T01:36:40.857Z,100947.00
2023-01-06T01:39:09.782Z,100934.44
2023-01-06T01:41:37.389Z,100935.94
2023-01-06T01:44:25.038Z,100943.25
2023-01-06T01:46:52.513Z,100945.63
2023-01-06T01:49:20.634Z,100951.03
2023-01-06T01:51:49.039Z,100932.31
2023-01-06T01:54:20.108Z,100921.88
2023-01-06T01:56:48.714Z,100931.38
2023-01-06T01:59:19.386Z,100923.34
2023-01-06T02:01:47.021Z,100935.78
2023-01-06T02:04:14.617Z,100920.81
2023-01-06T02:06:42.325Z,100934.81
2023-01-06T02:09:11.336Z,100924.03
2023-01-06T02:11:40.321Z,100926.25
2023-01-06T02:14:09.827Z,100911.59
2023-01-06T02:16:39.622Z,100917.56
2023-01-06T02:19:08.967Z,100924.91
2023-01-06T02:21:41.769Z,100909.13
2023-01-06T02:24:27.231Z,100914.91
2023-01-06T02:27:08.246Z,100900.34
2023-01-06T02:29:42.133Z,100908.09
2023-01-06T02:32:16.677Z,100889.47
2023-01-06T02:34:46.193Z,100908.63
2023-01-06T02:37:16.528Z,100908.19
2023-01-06T02:39:44.893Z,100892.78
2023-01-06T02:42:15.328Z,100900.94
2023-01-06T02:44:45.714Z,100876.44
2023-01-06T02:47:14.483Z,100900.94
2023-01-06T02:49:44.799Z,100889.28
2023-01-06T02:52:15.122Z,100887.94
2023-01-06T02:54:43.482Z,100880.06
2023-01-06T02:57:13.693Z,100872.47
2023-01-06T02:59:42.428Z,100875.28
2023-01-06T03:02:10.428Z,100862.88
2023-01-06T03:04:38.933Z,100879.25
2023-01-06T03:07:07.807Z,100865.34
2023-01-06T03:09:36.468Z,100862.06
2023-01-06T03:12:07.511Z,100865.59
2023-01-06T03:14:36.338Z,100870.03
2023-01-06T03:17:03.941Z,100863.94
2023-01-06T03:19:31.479Z,100868.16
2023-01-06T03:21:58.982Z,100868.00
2023-01-06T03:24:27.878Z,100863.56
2023-01-06T03:26:55.455Z,100833.81
2023-01-06T03:29:22.943Z,100842.09
2023-01-06T03:31:53.755Z,100831.44
2023-01-06T03:34:24.099Z,100830.00
2023-01-06T03:36:53.564Z,100844.03
2023-01-06T03:39:23.507Z,100825.69
2023-01-06T03:42:24.543Z,100818.34
2023-01-06T03:45:00.314Z,100796.47
2023-01-06T03:47:29.149Z,100820.66
2023-01-06T03:49:57.174Z,100830.09
2023-01-06T03:52:26.470Z,100819.50
2023-01-06T03:54:55.506Z,100811.50
2023-01-06T03:57:24.953Z,100798.84
2023-01-06T03:59:53.860Z,100799.88
2023-01-06T04:02:21.601Z,100808.75
2023-01-06T04:05:01.325Z,100798.53
2023-01-06T04:07:28.809Z,100803.63
2023-01-06T04:09:56.320Z,100803.63
2023-01-06T04:12:40.017Z,100788.69
2023-01-06T04:15:08.594Z,100781.69
2023-01-06T04:17:36.249Z,100782.22
2023-01-06T04:20:04.085Z,100771.13
2023-01-06T04:22:31.594Z,100783.41
2023-01-06T04:24:59.084Z,100784.34
2023-01-06T04:27:27.953Z,100780.19
2023-01-06T04:29:55.428Z,100769.44
2023-01-06T04:32:22.963Z,100757.72
2023-01-06T04:34:50.482Z,100758.75
2023-01-06T04:37:19.501Z,100765.75
2023-01-06T04:39:48.063Z,100736.41
2023-01-06T04:42:15.558Z,100746.69
2023-01-06T04:44:44.370Z,100735.25
2023-01-06T04:47:12.146Z,100728.66
2023-01-06T04:49:39.608Z,100726.53
2023-01-06T04:52:08.812Z,100718.66
2023-01-06T04:54:36.411Z,100714.88
2023-01-06T04:57:04.044Z,100725.63
2023-01-06T04:59:31.519Z,100701.09
2023-01-06T05:02:00.452Z,100717.03
2023-01-06T05:04:30.193Z,100718.19
2023-01-06T05:07:01.614Z,100718.56
2023-01-06T05:09:29.106Z,100709.59
2023-01-06T05:11:56.605Z,100697.34
2023-01-06T05:14:24.136Z,100698.47
2023-01-06T05:16:51.621Z,100696.56
2023-01-06T05:19:20.516Z,100682.09
2023-01-06T05:21:48.034Z,100676.44
2023-01-06T05:24:15.643Z,100672.38
2023-01-06T05:26:43.141Z,100691.72
2023-01-06T05:29:10.667Z,100675.63
2023-01-06T05:31:38.234Z,100679.00
2023-01-06T05:34:06.042Z,100687.56
2023-01-06T05:36:34.902Z,100679.03
2023-01-06T05:39:02.450Z,100677.66
2023-01-06T05:41:29.945Z,100682.16
2023-01-06T05:43:57.903Z,100690.53
2023-01-06T05:46:25.399Z,100695.59
2023-01-06T05:48:52.887Z,100675.00
2023-01-06T05:51:20.350Z,100676.94
2023-01-06T05:53:49.281Z,100668.28
2023-01-06T05:56:17.316Z,100679.19
2023-01-06T05:58:45.325Z,100676.47
2023-01-06T06:01:16.781Z,100685.25
2023-01-06T06:03:44.465Z,100685.59
2023-01-06T06:06:12.258Z,100686.56
2023-01-06T06:08:39.803Z,100680.44
2023-01-06T06:11:09.148Z,100695.34
2023-01-06T06:13:36.685Z,100681.81
2023-01-06T06:16:04.957Z,100673.19
2023-01-06T06:18:32.942Z,100677.91
2023-01-06T06:21:03.542Z,100673.44
2023-01-06T06:23:31.152Z,100653.19
2023-01-06T06:25:58.810Z,100664.72
2023-01-06T06:28:27.784Z,100660.34
2023-01-06T06:30:55.733Z,100650.31
2023-01-06T06:33:23.339Z,100663.53
2023-01-06T06:35:56.865Z,100649.25
2023-01-06T06:38:24.426Z,100646.91
2023-01-06T06:40:51.966Z,100637.56
2023-01-06T06:43:19.442Z,100646.53
2023-01-06T06:45:48.601Z,100649.94
2023-01-06T06:48:16.111Z,100641.06
2023-01-06T06:50:43.627Z,100637.66
2023-01-06T06:53:11.186Z,100625.59
2023-01-06T06:55:38.761Z,100634.69
2023-01-06T06:58:06.395Z,100640.91
2023-01-06T07:00:33.878Z,100631.25
2023-01-06T07:03:02.699Z,100630.91
2023-01-06T07:05:30.160Z,100606.69
2023-01-06T07:07:57.678Z,100607.75
2023-01-06T07:10:25.297Z,100617.59
2023-01-06T07:12:52.779Z,100629.56
2023-01-06T07:15:20.216Z,100618.94
2023-01-06T07:17:47.751Z,100614.09
2023-01-06T07:20:16.705Z,100630.84
2023-01-06T07:22:44.231Z,100631.63
2023-01-06T07:25:11.821Z,100631.34
2023-01-06T07:27:39.360Z,100631.88
2023-01-06T07:30:07.656Z,100644.06
2023-01-06T07:32:35.267Z,100635.19
2023-01-06T07:35:02.822Z,100633.97
2023-01-06T07:37:31.661Z,100643.97
2023-01-06T07:39:59.138Z,100647.19
2023-01-06T07:42:26.667Z,100646.88
2023-01-06T07:44:54.166Z,100651.63
2023-01-06T07:47:21.598Z,100627.56
2023-01-06T07:49:49.157Z,100650.41
2023-01-06T07:52:16.630Z,100658.38
2023-01-06T07:54:45.468Z,100663.41
2023-01-06T07:57:13.010Z,100652.03
2023-01-06T07:59:40.504Z,100673.09
2023-01-06T08:02:08.239Z,100688.56
2023-01-06T08:04:35.814Z,100691.91
2023-01-06T08:07:03.304Z,100686.19
2023-01-06T08:09:30.907Z,100689.50
2023-01-06T08:11:59.773Z,100689.56
2023-01-06T08:14:27.329Z,100697.19
2023-01-06T08:16:54.789Z,100698.75
2023-01-06T08:19:22.339Z,100679.44
2023-01-06T08:21:49.827Z,100703.78
2023-01-06T08:24:17.345Z,100688.50
2023-01-06T08:26:44.888Z,100704.09
2023-01-06T08:29:13.713Z,100718.56
2023-01-06T08:31:41.175Z,100733.53
2023-01-06T08:34:08.705Z,100735.59
2023-01-06T08:36:36.225Z,100747.19
2023-01-06T08:39:03.882Z,100761.59
2023-01-06T08:41:31.354Z,100760.31
2023-01-06T08:43:58.866Z,100768.13
2023-01-06T08:46:27.741Z,100772.38
2023-01-06T08:48:56.749Z,100772.91
2023-01-06T08:51:24.222Z,100779.09
2023-01-06T08:53:51.717Z,100780.72
2023-01-06T08:56:19.867Z,100781.22
2023-01-06T08:58:49.172Z,100779.94
2023-01-06T09:01:17.400Z,100773.38
2023-01-06T09:03:46.300Z,100780.72
2023-01-06T09:06:14.046Z,100792.50
2023-01-06T09:08:41.595Z,100780.47
2023-01-06T09:11:09.559Z,100789.31
2023-01-06T09:13:37.149Z,100793.75
2023-01-06T09:16:06.042Z,100782.00
2023-01-06T09:18:33.566Z,100807.28
2023-01-06T09:21:02.488Z,100804.88
2023-01-06T09:23:29.995Z,100810.31
2023-01-06T09:25:58.156Z,100811.94
2023-01-06T09:28:25.661Z,100839.91
2023-01-06T09:30:53.231Z,100831.06
2023-01-06T09:33:20.761Z,100845.00
2023-01-06T09:35:48.330Z,100860.31
2023-01-06T09:38:17.338Z,100865.03
2023-01-06T09:40:48.127Z,100866.84
2023-01-06T09:43:17.206Z,100866.31
2023-01-06T09:45:45.503Z,100873.84
2023-01-06T09:48:14.935Z,100864.66
2023-01-06T09:50:42.683Z,100856.72
2023-01-06T09:53:12.201Z,100865.75
2023-01-06T09:55:41.835Z,100872.53
2023-01-06T09:58:10.633Z,100862.22
2023-01-06T10:00:39.779Z,100883.22
2023-01-06T10:03:10.071Z,100886.03
2023-01-06T10:05:39.738Z,100889.84
2023-01-06T10:08:09.726Z,100885.38
2023-01-06T10:10:39.359Z,100900.50
2023-01-06T10:13:22.987Z,100899.13
2023-01-06T10:15:52.509Z,100908.44
2023-01-06T10:18:23.110Z,100905.75
2023-01-06T10:20:53.515Z,100915.19
2023-01-06T10:23:25.219Z,100905.47
2023-01-06T10:25:54.355Z,100899.19
2023-01-06T10:28:29.461Z,100902.78
2023-01-06T10:30:57.480Z,100916.19
2023-01-06T10:35:54.951Z,100920.09
2023-01-06T10:38:22.784Z,100912.56
2023-01-06T10:40:50.363Z,100926.84
2023-01-06T10:43:22.554Z,100941.41
2023-01-06T10:45:51.582Z,100927.69
2023-01-06T10:48:19.468Z,100934.13
2023-01-06T10:50:46.962Z,100931.03
2023-01-06T10:53:14.922Z,100918.56
2023-01-06T10:55:43.723Z,100918.50
2023-01-06T10:58:15.934Z,100919.78
2023-01-06T11:00:56.917Z,100929.06
2023-01-06T11:03:33.161Z,100916.53
2023-01-06T11:06:03.116Z,100923.09
2023-01-06T11:08:30.617Z,100924.63
2023-01-06T11:10:58.345Z,100926.03
2023-01-06T11:13:27.431Z,100936.38
2023-01-06T11:15:56.440Z,100929.91
2023-01-06T11:18:25.314Z,100929.56
2023-01-06T11:21:03.013Z,100917.13
2023-01-06T11:23:30.698Z,100917.75
2023-01-06T11:26:02.162Z,100923.28
2023-01-06T11:28:30.706Z,100922.25
2023-01-06T11:31:01.323Z,100919.78
2023-01-06T11:33:29.162Z,100916.53
2023-01-06T11:35:56.681Z,100918.56
2023-01-06T11:38:24.160Z,100906.31
2023-01-06T11:40:52.052Z,100915.75
2023-01-06T11:43:21.126Z,100923.69
2023-01-06T11:45:49.231Z,100918.28
2023-01-06T11:48:18.977Z,100920.47
2023-01-06T11:50:53.285Z,100913.13
2023-01-06T11:53:21.308Z,100919.34
2023-01-06T11:55:58.863Z,100904.72
2023-01-06T11:58:29.727Z,100895.78
2023-01-06T12:00:57.963Z,100905.91
2023-01-06T12:03:31.105Z,100924.88
2023-01-06T12:05:59.979Z,100914.72
2023-01-06T12:08:29.674Z,100920.38
2023-01-06T12:10:58.526Z,100916.13
2023-01-06T12:13:26.047Z,100915.88
2023-01-06T12:15:56.167Z,100915.16
2023-01-06T12:18:24.982Z,100916.81
2023-01-06T12:20:53.846Z,100932.31
2023-01-06T12:23:21.749Z,100916.97
2023-01-06T12:25:49.403Z,100918.94
2023-01-06T12:28:17.937Z,100917.44
2023-01-06T12:30:47.513Z,100923.94
2023-01-06T12:33:15.958Z,100919.88
2023-01-06T12:35:45.551Z,100921.06
2023-01-06T12:38:17.302Z,100914.91
2023-01-06T12:40:45.680Z,100910.59
2023-01-06T12:43:15.135Z,100909.31
2023-01-06T12:45:49.690Z,100903.94
2023-01-06T12:48:22.362Z,100901.91
2023-01-06T12:50:50.896Z,100922.09
2023-01-06T12:53:21.377Z,100926.75
2023-01-06T12:55:50.956Z,100911.00
2023-01-06T12:58:19.290Z,100927.88
2023-01-06T13:00:48.731Z,100930.69
2023-01-06T13:03:25.292Z,100913.47
2023-01-06T13:05:56.082Z,100927.84
2023-01-06T13:08:27.974Z,100919.25
2023-01-06T13:10:57.061Z,100929.53
2023-01-06T13:13:43.511Z,100923.25
2023-01-06T13:16:14.698Z,100921.47
2023-01-06T13:18:42.684Z,100930.25
2023-01-06T13:21:10.373Z,100931.63
2023-01-06T13:23:41.724Z,100936.22
2023-01-06T13:26:12.779Z,100941.75
2023-01-06T13:28:41.327Z,100942.34
2023-01-06T13:31:26.034Z,100930.47
2023-01-06T13:34:04.094Z,100923.00
2023-01-06T13:36:50.008Z,100933.97
2023-01-06T13:39:19.287Z,100929.16
2023-01-06T13:41:47.180Z,100936.53
2023-01-06T13:44:15.252Z,100935.69
2023-01-06T13:46:42.751Z,100946.53
2023-01-06T13:49:11.275Z,100941.56
2023-01-06T13:51:39.635Z,100941.25
2023-01-06T13:54:07.150Z,100957.44
2023-01-06T13:56:37.166Z,100951.75
2023-01-06T13:59:18.761Z,100958.53
2023-01-06T14:01:46.533Z,100951.72
2023-01-06T14:04:32.948Z,100941.06
2023-01-06T14:07:00.407Z,100960.41
2023-01-06T14:09:27.941Z,100956.47
2023-01-06T14:11:56.790Z,100949.66
2023-01-06T14:14:25.163Z,100955.38
2023-01-06T14:16:53.256Z,100958.53
2023-01-06T14:19:22.122Z,100932.03
2023-01-06T14:21:50.202Z,100938.59
2023-01-06T14:24:21.978Z,100950.34
2023-01-06T14:26:54.626Z,100949.81
2023-01-06T14:29:40.766Z,100935.19
2023-01-06T14:32:10.035Z,100950.94
2023-01-06T14:34:38.273Z,100939.28
2023-01-06T14:37:05.799Z,100962.38
2023-01-06T14:39:33.614Z,100944.22
2023-01-06T14:42:01.920Z,100935.19
2023-01-06T14:44:31.646Z,100941.91
2023-01-06T14:47:00.826Z,100946.09
2023-01-06T14:49:31.114Z,100940.13
2023-01-06T14:51:58.751Z,100933.56
2023-01-06T14:54:26.617Z,100948.13
2023-01-06T14:56:54.536Z,100941.84
2023-01-06T14:59:22.745Z,100932.22
2023-01-06T15:01:56.055Z,100940.06
2023-01-06T15:04:30.117Z,100939.97
2023-01-06T15:07:02.778Z,100941.16
2023-01-06T15:09:30.326Z,100945.63
2023-01-06T15:11:57.800Z,100950.53
2023-01-06T15:14:32.635Z,100948.38
2023-01-06T15:17:01.362Z,100955.78
2023-01-06T15:19:28.838Z,100953.78
2023-01-06T15:21:57.053Z,100953.47
2023-01-06T15:24:26.566Z,100961.06
2023-01-06T15:26:55.151Z,100954.06
2023-01-06T15:29:23.081Z,100951.59
2023-01-06T15:31:50.982Z,100957.28
2023-01-06T15:34:19.091Z,100958.84
2023-01-06T15:36:46.924Z,100950.56
2023-01-06T15:39:15.035Z,100943.78
2023-01-06T15:41:43.954Z,100952.19
2023-01-06T15:44:24.615Z,100944.06
2023-01-06T15:46:52.280Z,100947.63
2023-01-06T15:49:22.656Z,100941.25
2023-01-06T15:51:55.137Z,100936.13
2023-01-06T15:54:22.693Z,100939.34
2023-01-06T15:56:51.518Z,100941.47
2023-01-06T15:59:19.034Z,100942.47
2023-01-06T16:01:49.969Z,100947.97
2023-01-06T16:04:17.645Z,100952.66
2023-01-06T16:06:45.243Z,100958.34
2023-01-06T16:09:26.837Z,100956.06
2023-01-06T16:12:08.486Z,100953.56
2023-01-06T16:14:36.918Z,100949.38
2023-01-06T16:17:06.211Z,100961.75
2023-01-06T16:19:33.794Z,100953.66
2023-01-06T16:22:01.665Z,100951.56
2023-01-06T16:24:30.148Z,100944.75
2023-01-06T16:26:58.308Z,100948.22
2023-01-06T16:29:29.221Z,100952.09
2023-01-06T16:31:57.141Z,100957.59
2023-01-06T16:34:28.157Z,100956.41
2023-01-06T16:36:56.381Z,100958.97
2023-01-06T16:39:23.946Z,100952.16
2023-01-06T16:42:38.017Z,100948.44
2023-01-06T16:45:09.035Z,100957.75
2023-01-06T16:47:36.504Z,100953.19
2023-01-06T16:50:07.870Z,100951.72
2023-01-06T16:52:35.319Z,100949.03
2023-01-06T16:55:02.897Z,100947.38
2023-01-06T16:57:30.437Z,100962.72
2023-01-06T16:59:57.922Z,100958.06
2023-01-06T17:02:26.834Z,100960.97
2023-01-06T17:04:54.485Z,100956.50
2023-01-06T17:07:23.604Z,100955.78
2023-01-06T17:09:52.248Z,100963.03
2023-01-06T17:12:35.111Z,100964.44
2023-01-06T17:15:02.770Z,100963.59
2023-01-06T17:17:31.633Z,100964.59
2023-01-06T17:19:59.243Z,100964.69
2023-01-06T17:22:27.484Z,100959.41
2023-01-06T17:24:55.006Z,100964.06
2023-01-06T17:27:23.060Z,100966.69
2023-01-06T17:29:50.636Z,100976.00
2023-01-06T17:32:19.127Z,100968.31
2023-01-06T17:34:47.989Z,100963.75
2023-01-06T17:37:16.710Z,100960.81
2023-01-06T17:39:44.786Z,100961.09
2023-01-06T17:42:25.239Z,100967.84
2023-01-06T17:44:53.944Z,100969.47
2023-01-06T17:47:28.131Z,100984.28
2023-01-06T17:49:57.645Z,100977.84
2023-01-06T17:52:25.934Z,100981.84
2023-01-06T17:55:12.057Z,100977.97
2023-01-06T17:57:40.318Z,100969.44
2023-01-06T18:00:16.400Z,100965.25
2023-01-06T18:02:44.257Z,100968.72
2023-01-06T18:05:34.086Z,100974.00
2023-01-06T18:08:02.951Z,100972.00
2023-01-06T18:10:30.509Z,100964.72
2023-01-06T18:12:58.007Z,100967.28
2023-01-06T18:15:29.430Z,100974.16
2023-01-06T18:17:57.027Z,100975.78
2023-01-06T18:20:25.950Z,100975.00
2023-01-06T18:22:53.473Z,100964.31
2023-01-06T18:25:27.459Z,100963.19
2023-01-06T18:27:55.017Z,100960.91
2023-01-06T18:30:23.745Z,100954.78
2023-01-06T18:32:51.774Z,100959.75
2023-01-06T18:35:21.262Z,100950.22
2023-01-06T18:37:50.478Z,100953.63
2023-01-06T18:40:18.525Z,100954.19
2023-01-06T18:42:46.474Z,100950.88
2023-01-06T18:45:19.235Z,100955.19
2023-01-06T18:47:50.042Z,100963.09
2023-01-06T18:50:24.049Z,100963.72
2023-01-06T18:52:53.083Z,100976.31
2023-01-06T18:55:24.786Z,100961.56
2023-01-06T18:57:56.760Z,100976.00
2023-01-06T19:00:38.456Z,100966.38
2023-01-06T19:03:13.153Z,100976.84
2023-01-06T19:05:40.669Z,100965.16
2023-01-06T19:08:12.861Z,100962.66
2023-01-06T19:10:40.325Z,100958.94
2023-01-06T19:13:10.904Z,100959.09
2023-01-06T19:15:38.432Z,100960.19
2023-01-06T19:18:06.895Z,100958.94
2023-01-06T19:20:37.312Z,100956.03
2023-01-06T19:23:07.098Z,100966.41
2023-01-06T19:25:36.347Z,100960.19
2023-01-06T19:28:04.216Z,100957.09
2023-01-06T19:30:36.240Z,100957.41
2023-01-06T19:33:22.384Z,100950.56
2023-01-06T19:35:49.873Z,100934.31
2023-01-06T19:38:23.875Z,100930.56
2023-01-06T19:40:52.749Z,100947.47
2023-01-06T19:43:20.998Z,100946.47
2023-01-06T19:45:48.551Z,100956.94
2023-01-06T19:48:17.751Z,100956.00
2023-01-06T19:50:45.342Z,100953.66
2023-01-06T19:53:19.548Z,100946.38
2023-01-06T19:55:47.068Z,100950.28
2023-01-06T19:58:16.678Z,100954.88
2023-01-06T20:00:47.108Z,100939.25
2023-01-06T20:03:20.470Z,100940.59
2023-01-06T20:05:47.960Z,100943.75
2023-01-06T20:08:15.410Z,100944.47
2023-01-06T20:10:42.844Z,100946.53
2023-01-06T20:13:10.383Z,100952.41
2023-01-06T20:15:39.254Z,100947.97
2023-01-06T20:18:06.799Z,100942.34
2023-01-06T20:20:34.370Z,100925.38
2023-01-06T20:23:01.908Z,100924.78
2023-01-06T20:25:29.398Z,100920.25
2023-01-06T20:27:56.995Z,100919.88
2023-01-06T20:30:24.528Z,100917.97
2023-01-06T20:32:53.336Z,100920.47
2023-01-06T20:35:21.368Z,100920.34
2023-01-06T20:37:48.867Z,100903.50
2023-01-06T20:40:18.192Z,100906.06
2023-01-06T20:42:45.707Z,100899.59
2023-01-06T20:45:13.426Z,100895.16
2023-01-06T20:47:41.798Z,100891.22
2023-01-06T20:50:13.838Z,100895.25
2023-01-06T20:52:41.612Z,100872.53
2023-01-06T20:55:09.467Z,100897.97
2023-01-06T20:57:36.981Z,100910.97
2023-01-06T21:00:04.925Z,100901.69
2023-01-06T21:02:32.568Z,100894.38
2023-01-06T21:05:00.174Z,100907.75
2023-01-06T21:07:29.009Z,100904.50
2023-01-06T21:09:56.838Z,100899.06
2023-01-06T21:12:24.715Z,100906.25
2023-01-06T21:14:52.195Z,100892.03
2023-01-06T21:17:19.757Z,100902.19
2023-01-06T21:19:48.012Z,100899.59
2023-01-06T21:22:15.484Z,100890.16
2023-01-06T21:24:44.312Z,100886.56
2023-01-06T21:27:11.775Z,100900.28
2023-01-06T21:29:39.262Z,100900.66
2023-01-06T21:32:06.730Z,100892.06
2023-01-06T21:34:34.256Z,100894.81
2023-01-06T21:37:01.848Z,100892.75
2023-01-06T21:39:29.340Z,100902.09
2023-01-06T21:42:15.717Z,100894.63
2023-01-06T21:44:43.256Z,100894.31
2023-01-06T21:47:11.255Z,100893.94
2023-01-06T21:49:38.929Z,100896.00
2023-01-06T21:52:06.875Z,100901.63
2023-01-06T21:54:34.452Z,100904.50
2023-01-06T21:57:03.377Z,100906.16
2023-01-06T21:59:30.879Z,100891.69
2023-01-06T22:01:58.467Z,100905.50
2023-01-06T22:04:26.038Z,100901.81
2023-01-06T22:06:53.718Z,100902.00
2023-01-06T22:09:22.395Z,100912.56
2023-01-06T22:11:49.928Z,100895.72
2023-01-06T22:14:18.798Z,100905.38
2023-01-06T22:16:46.390Z,100911.03
2023-01-06T22:19:14.242Z,100900.44
2023-01-06T22:21:41.859Z,100894.84
2023-01-06T22:24:09.916Z,100905.22
2023-01-06T22:26:37.392Z,100908.75
2023-01-06T22:29:04.935Z,100897.72
2023-01-06T22:31:33.802Z,100896.97
2023-01-06T22:34:01.319Z,100888.47
2023-01-06T22:36:28.838Z,100898.00
2023-01-06T22:38:56.339Z,100891.25
2023-01-06T22:41:23.834Z,100904.66
2023-01-06T22:43:51.403Z,100899.47
2023-01-06T22:46:18.935Z,100903.81
2023-01-06T22:48:47.805Z,100895.09
2023-01-06T22:51:15.291Z,100896.22
2023-01-06T22:53:42.780Z,100888.69
2023-01-06T22:56:11.036Z,100903.25
2023-01-06T22:58:39.299Z,100896.63
2023-01-06T23:01:07.527Z,100883.41
2023-01-06T23:03:35.209Z,100883.09
2023-01-06T23:06:04.969Z,100873.94
2023-01-06T23:08:33.459Z,100881.66
2023-01-06T23:11:01.111Z,100897.66
2023-01-06T23:13:28.710Z,100893.03
2023-01-06T23:15:59.865Z,100898.50
2023-01-06T23:18:27.425Z,100890.28
2023-01-06T23:20:58.347Z,100861.09
2023-01-06T23:23:27.202Z,100874.13
2023-01-06T23:25:54.698Z,100868.72
2023-01-06T23:28:22.175Z,100878.31
2023-01-06T23:30:49.721Z,100871.06
2023-01-06T23:33:17.241Z,100876.78
2023-01-06T23:35:44.774Z,100871.88
2023-01-06T23:38:12.268Z,100869.56
2023-01-06T23:40:41.199Z,100864.00
2023-01-06T23:43:08.682Z,100877.72
2023-01-06T23:45:36.205Z,100873.38
2023-01-06T23:48:03.719Z,100870.91
2023-01-06T23:50:31.172Z,100859.09
2023-01-06T23:52:58.633Z,100870.19
2023-01-06T23:55:26.116Z,100876.03
2023-01-06T23:57:54.981Z,100876.00
